Fort Mitchell, Kentucky
Current Conditions -  °F | °C
As of 12:14 PM on Saturday 25 Oct 2014 (Local Time) from KI69 Reporting Station
Broken Clouds Broken Clouds  
Wind Chill: 63°   Ceiling: 2200
Heat Index: 63°   Visibility: 10mi
Dew Point: 52°   Wind: 12mph
Humidity: 68%   Direction: 240°WSW
Pressure: 29.98"   Gusts: NA
Location:  39.04°N, 84.55°W
Report Text: KI69 251614Z AUTO 24010KT 10SM BKN022 17/11 A2998 RMK AO1
Loading
Personal Weather Stations






























Interactive Weather Map
Tropical Storm Tracking
New forecast layout! Learn more

10-Day Weather Forecast

Advertisements
Track Severe Weather on mobile